Yellow Lake, Wisconsin
Current Conditions -  °F | °C
As of 6:55 PM on Saturday 22 Nov 2014 (Local Time) from KRZN Reporting Station
Haze Haze  
Wind Chill: 26°   Ceiling: 500
Heat Index: 34°   Visibility: 4mi
Dew Point: 33°   Wind: 9mph
Humidity: 96%   Direction: 160°SSE
Pressure: 29.63"   Gusts: NA
Location:  46.1107°N, 92.219°W
Report Text: KRZN 230055Z AUTO 16008KT 4SM BR OVC005 01/01 A2963 RMK AO2 T00100005
Loading
Personal Weather Stations






























Interactive Weather Map New forecast layout! Learn more

10-Day Weather Forecast

Advertisements
Track Severe Weather on mobile